Time;durP1;ratioP1;P1;durP2;ratioP2;P2;SDS_P1;SDS_P2;PMS_P1;PMS_P2;Temp;Humidity;BMP_temperature;BMP_pressure;BME280_temperature;BME280_humidity;BME280_pressure;Samples;Min_cycle;Max_cycle;Signal;HPM_P1;HPM_P2
2022/04/24 00:01:57;;;;;;;3.08;2.78;;;9.30;99.90;;;;;;4985792;28;20026;-79
2022/04/24 00:04:24;;;;;;;2.92;2.60;;;9.30;99.90;;;;;;4996749;28;20027;-78
2022/04/24 00:06:53;;;;;;;3.28;2.65;;;9.30;99.90;;;;;;4998168;28;20023;-78
2022/04/24 00:09:23;;;;;;;4.20;2.63;;;9.30;99.90;;;;;;5000638;28;20356;-77
2022/04/24 00:11:49;;;;;;;3.25;2.33;;;9.30;99.90;;;;;;4983247;28;20072;-78
2022/04/24 00:14:17;;;;;;;2.90;2.40;;;9.30;99.90;;;;;;4983495;28;20038;-77
2022/04/24 00:16:45;;;;;;;3.25;2.67;;;9.30;99.90;;;;;;4980025;28;20047;-77
2022/04/24 00:19:11;;;;;;;3.03;2.70;;;9.30;99.90;;;;;;4981297;28;20031;-77
2022/04/24 00:21:37;;;;;;;3.67;2.50;;;9.30;99.90;;;;;;4963693;28;20498;-77
2022/04/24 00:24:03;;;;;;;4.50;3.20;;;9.30;99.90;;;;;;4963659;28;20030;-77
2022/04/24 00:26:29;;;;;;;4.38;3.15;;;9.30;99.90;;;;;;4980974;28;20026;-77
2022/04/24 00:28:55;;;;;;;4.55;3.10;;;9.30;99.90;;;;;;4981072;28;20027;-77
2022/04/24 00:31:21;;;;;;;4.65;3.00;;;9.30;99.90;;;;;;4980950;28;20448;-77
2022/04/24 00:33:47;;;;;;;6.57;3.10;;;9.30;99.90;;;;;;4963503;28;20030;-78
2022/04/24 00:36:13;;;;;;;7.82;3.00;;;9.40;99.90;;;;;;4980911;28;20027;-78
2022/04/24 00:38:39;;;;;;;3.80;3.00;;;9.30;99.90;;;;;;4980776;28;20031;-78
2022/04/24 00:41:05;;;;;;;15.25;4.90;;;9.30;99.90;;;;;;4980867;28;20027;-79
2022/04/24 00:43:31;;;;;;;4.45;3.03;;;9.30;99.90;;;;;;4980943;28;20033;-78
2022/04/24 00:46:31;;;;;;;5.25;2.85;;;9.40;99.90;;;;;;4963029;28;20026;-78
2022/04/24 00:48:57;;;;;;;4.82;2.78;;;9.40;99.90;;;;;;4948562;28;20034;-78
2022/04/24 00:51:23;;;;;;;4.10;2.83;;;9.40;99.90;;;;;;4963375;28;20518;-78
2022/04/24 00:53:49;;;;;;;11.65;3.20;;;9.40;99.90;;;;;;4963005;28;20090;-78
2022/04/24 00:56:17;;;;;;;4.57;3.10;;;9.40;99.90;;;;;;4980631;28;20065;-78
2022/04/24 00:58:43;;;;;;;6.18;2.90;;;9.40;99.90;;;;;;4962966;28;20077;-78
2022/04/24 01:01:09;;;;;;;6.57;3.15;;;9.40;99.90;;;;;;4967911;28;20026;-78
2022/04/24 01:03:35;;;;;;;6.63;2.92;;;9.40;99.90;;;;;;4980409;28;20033;-78
2022/04/24 01:06:03;;;;;;;5.18;3.10;;;9.40;99.90;;;;;;4980609;28;20082;-78
2022/04/24 01:08:28;;;;;;;3.45;3.15;;;9.40;99.90;;;;;;4979061;28;20026;-78
2022/04/24 01:10:54;;;;;;;3.00;2.67;;;9.40;99.90;;;;;;4962954;28;20035;-78
2022/04/24 01:13:20;;;;;;;3.13;2.85;;;9.50;99.90;;;;;;4980275;28;20066;-78
2022/04/24 01:15:46;;;;;;;3.72;2.83;;;9.50;99.90;;;;;;4988398;28;20039;-78
2022/04/24 01:18:13;;;;;;;4.97;3.08;;;9.50;99.90;;;;;;4984951;28;20037;-78
2022/04/24 01:20:39;;;;;;;3.35;3.00;;;9.50;99.90;;;;;;4980145;28;20030;-77
2022/04/24 01:23:05;;;;;;;3.67;3.38;;;9.50;99.90;;;;;;4994827;28;20026;-77
2022/04/24 01:25:31;;;;;;;4.25;2.97;;;9.50;99.90;;;;;;4999529;28;20031;-77
2022/04/24 01:27:56;;;;;;;3.00;2.80;;;9.50;99.90;;;;;;4999449;28;20034;-77
2022/04/24 01:30:22;;;;;;;6.20;2.97;;;9.60;99.90;;;;;;4999523;28;20030;-77
2022/04/24 01:32:48;;;;;;;2.53;2.25;;;9.60;99.90;;;;;;4981635;28;20037;-79
2022/04/24 01:35:15;;;;;;;3.08;2.45;;;9.60;99.90;;;;;;4981955;28;20033;-79
2022/04/24 01:37:44;;;;;;;5.35;2.42;;;9.60;99.90;;;;;;4999580;28;20026;-77
2022/04/24 01:40:10;;;;;;;2.40;2.20;;;9.60;99.90;;;;;;4999209;28;20034;-78
2022/04/24 01:42:36;;;;;;;2.35;2.15;;;9.70;99.90;;;;;;4999165;28;20390;-77
2022/04/24 01:45:02;;;;;;;2.42;2.22;;;9.70;99.90;;;;;;4981601;28;20054;-77
2022/04/24 01:47:28;;;;;;;3.47;2.25;;;9.70;99.90;;;;;;4999013;28;20113;-77
2022/04/24 01:49:54;;;;;;;2.40;2.20;;;9.70;99.90;;;;;;4999157;28;20050;-78
2022/04/24 01:52:19;;;;;;;2.40;2.20;;;9.70;99.90;;;;;;4998848;28;20069;-78
2022/04/24 01:54:45;;;;;;;2.30;2.10;;;9.80;99.90;;;;;;4981266;28;20050;-79
2022/04/24 01:57:11;;;;;;;2.50;2.30;;;9.80;99.90;;;;;;4998888;28;20085;-77
2022/04/24 01:59:37;;;;;;;3.92;2.20;;;9.90;99.90;;;;;;4998815;28;20026;-78
2022/04/24 02:02:03;;;;;;;3.38;2.50;;;9.90;99.90;;;;;;4983983;28;20062;-78
2022/04/24 02:04:29;;;;;;;2.85;2.45;;;9.90;99.90;;;;;;4962089;28;20491;-79
2022/04/24 02:06:55;;;;;;;3.17;2.10;;;9.90;99.90;;;;;;4983488;28;20450;-78
2022/04/24 02:09:20;;;;;;;3.47;2.22;;;10.00;99.90;;;;;;4998516;28;20046;-79
2022/04/24 02:11:46;;;;;;;2.60;2.40;;;10.00;99.90;;;;;;4981321;28;20022;-78
2022/04/24 02:14:12;;;;;;;2.25;2.05;;;10.00;99.90;;;;;;4998585;28;20045;-79
2022/04/24 02:16:38;;;;;;;2.97;2.30;;;10.00;99.90;;;;;;4996206;28;20146;-78
2022/04/24 02:19:04;;;;;;;4.57;2.15;;;9.90;99.90;;;;;;4961740;28;20114;-79
2022/04/24 02:21:29;;;;;;;5.00;2.30;;;9.90;99.90;;;;;;4961562;28;20023;-78
2022/04/24 02:23:56;;;;;;;2.65;2.45;;;9.90;99.90;;;;;;4961510;28;20034;-79
2022/04/24 02:26:22;;;;;;;2.88;2.30;;;9.90;99.90;;;;;;4978840;28;20562;-78
2022/04/24 02:28:47;;;;;;;2.50;2.30;;;9.90;99.90;;;;;;4961514;28;20106;-79
2022/04/24 02:31:13;;;;;;;2.70;2.50;;;9.90;99.90;;;;;;4961587;28;20022;-79
2022/04/24 02:33:39;;;;;;;2.80;2.60;;;9.90;99.90;;;;;;4978924;28;20015;-79
2022/04/24 02:36:05;;;;;;;2.42;2.22;;;9.90;99.90;;;;;;4978694;28;20027;-80
2022/04/24 02:38:31;;;;;;;2.60;2.30;;;9.90;99.90;;;;;;4978799;28;20033;-78
2022/04/24 02:40:58;;;;;;;3.28;2.40;;;9.90;99.90;;;;;;4978732;28;20552;-79
2022/04/24 02:43:24;;;;;;;2.40;2.20;;;9.90;99.90;;;;;;4961423;28;20491;-78
2022/04/24 02:45:50;;;;;;;4.85;2.60;;;10.00;99.90;;;;;;4978360;28;20474;-78
2022/04/24 02:48:16;;;;;;;2.40;2.20;;;10.00;99.90;;;;;;4978589;28;20387;-79
2022/04/24 02:50:42;;;;;;;2.80;2.22;;;10.00;99.90;;;;;;4978506;28;20035;-78
2022/04/24 02:53:08;;;;;;;2.40;2.20;;;10.00;99.90;;;;;;4982982;28;20027;-78
2022/04/24 02:55:33;;;;;;;2.30;2.10;;;10.00;99.90;;;;;;4961322;28;20411;-76
2022/04/24 02:58:00;;;;;;;2.40;2.20;;;10.10;99.90;;;;;;4961268;28;20027;-78
2022/04/24 03:00:39;;;;;;;2.30;2.10;;;10.10;99.90;;;;;;4983176;28;20030;-79
2022/04/24 03:03:06;;;;;;;2.20;2.00;;;10.10;99.90;;;;;;4979126;28;20105;-78
2022/04/24 03:05:32;;;;;;;2.28;2.08;;;10.10;99.90;;;;;;4978958;28;20031;-78
2022/04/24 03:07:58;;;;;;;2.15;1.98;;;10.10;99.90;;;;;;4961423;28;20033;-78
2022/04/24 03:10:24;;;;;;;2.58;2.10;;;10.10;99.90;;;;;;4978258;28;20022;-79
2022/04/24 03:12:50;;;;;;;2.20;2.00;;;10.20;99.90;;;;;;4978351;28;20106;-79
2022/04/24 03:15:16;;;;;;;2.50;2.30;;;10.20;99.90;;;;;;4982023;28;20085;-79
2022/04/24 03:17:43;;;;;;;2.90;2.10;;;10.20;99.90;;;;;;4987220;28;20073;-79
2022/04/24 03:20:11;;;;;;;2.70;2.50;;;10.20;99.90;;;;;;4960789;28;20435;-80
2022/04/24 03:22:37;;;;;;;2.45;2.25;;;10.20;99.90;;;;;;4978110;28;20598;-78
2022/04/24 03:25:05;;;;;;;2.70;2.50;;;10.20;99.90;;;;;;4977863;28;20027;-79
2022/04/24 03:27:31;;;;;;;2.72;2.53;;;10.30;99.90;;;;;;4995948;28;20114;-78
2022/04/24 03:29:57;;;;;;;3.15;2.65;;;10.30;99.90;;;;;;4980159;28;20033;-79
2022/04/24 03:32:23;;;;;;;3.58;3.03;;;10.30;99.90;;;;;;4998979;28;20046;-79
2022/04/24 03:34:49;;;;;;;4.10;3.45;;;10.30;99.90;;;;;;4983848;28;20031;-79
2022/04/24 03:37:15;;;;;;;4.70;3.70;;;10.30;99.90;;;;;;5001596;28;20023;-79
2022/04/24 03:39:41;;;;;;;6.78;4.20;;;10.30;99.90;;;;;;4983698;28;20034;-78
2022/04/24 03:42:07;;;;;;;4.82;4.32;;;10.30;99.90;;;;;;5001522;28;20030;-80
2022/04/24 03:44:33;;;;;;;6.78;4.57;;;10.30;99.90;;;;;;4983948;28;20034;-79
2022/04/24 03:47:00;;;;;;;5.95;5.15;;;10.40;99.90;;;;;;5001425;28;20033;-79
2022/04/24 03:49:26;;;;;;;9.20;6.70;;;10.40;99.90;;;;;;5001229;28;20082;-79
2022/04/24 03:51:53;;;;;;;8.43;7.35;;;10.40;99.90;;;;;;4984021;28;20072;-78
2022/04/24 03:54:19;;;;;;;9.00;7.47;;;10.40;99.90;;;;;;4983390;28;20026;-78
2022/04/24 03:56:45;;;;;;;14.73;8.70;;;10.40;99.90;;;;;;5001128;28;20041;-78
2022/04/24 03:59:10;;;;;;;18.77;10.55;;;10.50;99.90;;;;;;5000892;28;20035;-79
2022/04/24 04:01:36;;;;;;;12.65;10.27;;;10.50;99.90;;;;;;4988787;28;20030;-78
2022/04/24 04:04:02;;;;;;;17.52;8.80;;;10.50;99.90;;;;;;4963995;28;20031;-80
2022/04/24 04:06:29;;;;;;;23.00;13.25;;;10.60;99.90;;;;;;4964392;28;20037;-78
2022/04/24 04:08:55;;;;;;;21.42;14.82;;;10.60;99.90;;;;;;4963824;28;20034;-78
2022/04/24 04:11:20;;;;;;;19.98;13.25;;;10.60;99.90;;;;;;4963994;28;20019;-80
2022/04/24 04:13:46;;;;;;;26.77;15.15;;;10.70;99.90;;;;;;4981596;28;20054;-77
2022/04/24 04:16:12;;;;;;;28.30;19.83;;;10.60;99.90;;;;;;4975440;28;20030;-79
2022/04/24 04:18:38;;;;;;;40.78;19.40;;;10.70;99.90;;;;;;4964914;28;20034;-78
2022/04/24 04:21:04;;;;;;;44.13;23.05;;;10.70;99.90;;;;;;4981209;28;20023;-77
2022/04/24 04:23:30;;;;;;;38.65;23.77;;;10.80;99.90;;;;;;4990579;28;20033;-78
2022/04/24 04:25:56;;;;;;;47.67;22.38;;;10.80;99.90;;;;;;5000764;28;20022;-77
2022/04/24 04:28:22;;;;;;;41.95;24.92;;;10.80;99.90;;;;;;5000453;28;20030;-79
2022/04/24 04:30:48;;;;;;;46.50;25.38;;;10.80;99.90;;;;;;5000777;28;20077;-79
2022/04/24 04:33:14;;;;;;;47.17;26.08;;;10.90;99.90;;;;;;4982753;28;20034;-78
2022/04/24 04:35:40;;;;;;;43.03;27.73;;;10.80;99.90;;;;;;5000757;28;20018;-78
2022/04/24 04:38:06;;;;;;;38.70;27.08;;;10.90;99.90;;;;;;4982600;28;20450;-78
2022/04/24 04:40:32;;;;;;;47.90;27.45;;;10.90;99.90;;;;;;5000618;28;20026;-80
2022/04/24 04:42:58;;;;;;;52.05;28.08;;;11.00;99.90;;;;;;5000131;28;20030;-77
2022/04/24 04:45:26;;;;;;;48.35;30.83;;;11.00;99.90;;;;;;5000219;28;20204;-79
2022/04/24 04:47:52;;;;;;;54.00;30.50;;;11.00;99.90;;;;;;5000122;28;20482;-77
2022/04/24 04:50:19;;;;;;;51.17;29.23;;;11.10;99.90;;;;;;4982814;28;20423;-79
2022/04/24 04:52:45;;;;;;;57.25;31.10;;;11.10;99.90;;;;;;5000266;28;20031;-77
2022/04/24 04:55:11;;;;;;;54.75;35.13;;;11.10;99.90;;;;;;4999932;28;20025;-78
2022/04/24 04:57:37;;;;;;;56.83;32.40;;;11.10;99.90;;;;;;4982316;28;20038;-80
2022/04/24 05:00:05;;;;;;;47.70;31.80;;;11.20;99.90;;;;;;4999901;28;20033;-78
2022/04/24 05:02:34;;;;;;;59.20;31.90;;;11.20;99.90;;;;;;4986849;28;20027;-78
2022/04/24 05:05:00;;;;;;;51.95;27.05;;;11.20;99.90;;;;;;4982403;28;20098;-77
2022/04/24 05:07:26;;;;;;;41.97;27.42;;;11.30;99.90;;;;;;4981934;28;20435;-79
2022/04/24 05:09:52;;;;;;;31.20;20.50;;;11.30;99.90;;;;;;4981958;28;20019;-78
2022/04/24 05:12:18;;;;;;;39.05;23.55;;;11.40;99.90;;;;;;4999786;28;20030;-82
2022/04/24 05:14:44;;;;;;;32.92;21.52;;;11.40;99.90;;;;;;4999603;28;20033;-78
2022/04/24 05:17:09;;;;;;;51.60;28.00;;;11.40;99.90;;;;;;4975801;28;20035;-79
2022/04/24 05:19:35;;;;;;;30.10;18.50;;;11.40;99.90;;;;;;4980257;28;20027;-79
2022/04/24 05:22:01;;;;;;;46.38;26.42;;;11.40;99.90;;;;;;4980021;28;20443;-79
2022/04/24 05:24:27;;;;;;;65.82;29.77;;;11.40;99.90;;;;;;4979973;28;20030;-80
2022/04/24 05:26:53;;;;;;;35.47;22.55;;;11.40;99.90;;;;;;4962570;28;20030;-79
2022/04/24 05:29:19;;;;;;;45.15;25.73;;;11.40;99.90;;;;;;4962528;28;20023;-80
2022/04/24 05:31:45;;;;;;;46.42;26.42;;;11.40;99.90;;;;;;4990856;28;20022;-80
2022/04/24 05:34:11;;;;;;;48.67;26.08;;;11.50;99.90;;;;;;4999208;28;20027;-79
2022/04/24 05:36:36;;;;;;;48.33;24.90;;;11.40;99.90;;;;;;4999547;28;20031;-80
2022/04/24 05:39:02;;;;;;;44.83;23.50;;;11.40;99.90;;;;;;4999066;28;20029;-79
2022/04/24 05:41:28;;;;;;;34.03;21.05;;;11.50;99.90;;;;;;4999192;28;20030;-81
2022/04/24 05:43:54;;;;;;;30.30;18.73;;;11.50;99.90;;;;;;4981874;28;20516;-79
2022/04/24 05:46:20;;;;;;;52.50;25.35;;;11.50;99.90;;;;;;4981397;28;20028;-78
2022/04/24 05:48:46;;;;;;;50.10;26.80;;;11.50;99.90;;;;;;4999066;28;20018;-78
2022/04/24 05:51:11;;;;;;;45.45;24.63;;;11.50;99.90;;;;;;4981704;28;20502;-80
2022/04/24 05:53:37;;;;;;;40.97;25.27;;;11.50;99.90;;;;;;4981504;28;20026;-79
2022/04/24 05:56:04;;;;;;;48.47;22.58;;;11.50;99.90;;;;;;4980900;28;20486;-78
2022/04/24 05:58:29;;;;;;;37.67;22.85;;;11.50;99.90;;;;;;4998958;28;20471;-80
2022/04/24 06:00:55;;;;;;;49.80;20.98;;;11.50;99.90;;;;;;4992380;28;20046;-83
2022/04/24 06:03:21;;;;;;;43.42;25.05;;;11.50;99.90;;;;;;4979560;28;20527;-79
2022/04/24 06:05:48;;;;;;;47.00;25.90;;;11.60;99.90;;;;;;4980440;28;20025;-79
2022/04/24 06:08:15;;;;;;;45.38;23.73;;;11.60;99.90;;;;;;4961538;28;20113;-79
2022/04/24 06:10:42;;;;;;;44.85;25.15;;;11.60;99.90;;;;;;4987182;28;20018;-79
2022/04/24 06:13:08;;;;;;;56.78;27.95;;;11.60;99.90;;;;;;4998891;28;20042;-79
2022/04/24 06:15:34;;;;;;;42.13;27.10;;;11.60;99.90;;;;;;4996963;28;20042;-79
2022/04/24 06:18:00;;;;;;;47.17;24.80;;;11.60;99.90;;;;;;4985497;28;20498;-79
2022/04/24 06:20:28;;;;;;;58.22;27.63;;;11.60;99.90;;;;;;4979183;28;20034;-80
2022/04/24 06:22:56;;;;;;;42.75;22.08;;;11.60;99.90;;;;;;4978721;28;20038;-78
2022/04/24 06:25:41;;;;;;;50.38;23.38;;;11.60;99.90;;;;;;4979297;28;20034;-79
2022/04/24 06:28:07;;;;;;;51.33;24.33;;;11.60;99.90;;;;;;4961575;28;20041;-77
2022/04/24 06:30:35;;;;;;;39.03;18.80;;;11.60;99.90;;;;;;4978761;28;20022;-78
2022/04/24 06:33:03;;;;;;;54.30;23.20;;;11.60;99.90;;;;;;4961374;28;20553;-79
2022/04/24 06:35:29;;;;;;;36.60;18.67;;;11.60;99.90;;;;;;4978752;28;20019;-79
2022/04/24 06:37:55;;;;;;;40.53;24.50;;;11.60;99.90;;;;;;4978611;28;20113;-78
2022/04/24 06:40:23;;;;;;;43.60;22.90;;;11.60;99.90;;;;;;4978778;28;20379;-79
2022/04/24 06:42:49;;;;;;;36.80;17.98;;;11.50;99.90;;;;;;4978641;28;20026;-80
2022/04/24 06:45:16;;;;;;;48.05;25.50;;;11.60;99.90;;;;;;4961553;28;20443;-78
2022/04/24 06:47:43;;;;;;;56.17;28.20;;;11.60;99.90;;;;;;4961112;28;20023;-78
2022/04/24 06:50:09;;;;;;;49.42;26.63;;;11.60;99.90;;;;;;4961608;28;20027;-79
2022/04/24 06:52:35;;;;;;;43.58;26.35;;;11.60;99.90;;;;;;4978216;28;20093;-80
2022/04/24 06:55:01;;;;;;;39.78;18.48;;;11.60;99.90;;;;;;4978833;28;20026;-79
2022/04/24 06:57:27;;;;;;;51.85;25.55;;;11.60;99.90;;;;;;4980604;28;20101;-78
2022/04/24 06:59:53;;;;;;;36.67;23.33;;;11.60;99.90;;;;;;4980349;28;20026;-78
2022/04/24 07:02:19;;;;;;;48.80;26.13;;;11.70;99.90;;;;;;4980423;28;20046;-78
2022/04/24 07:04:44;;;;;;;43.05;20.17;;;11.70;99.90;;;;;;4978423;28;20107;-80
2022/04/24 07:07:10;;;;;;;40.13;22.20;;;11.70;99.90;;;;;;4959844;28;20035;-78
2022/04/24 07:09:36;;;;;;;44.63;23.80;;;11.70;99.90;;;;;;4978282;28;20027;-78
2022/04/24 07:12:02;;;;;;;40.75;23.50;;;11.70;99.90;;;;;;4978402;28;20023;-78
2022/04/24 07:14:28;;;;;;;52.72;25.38;;;11.70;99.90;;;;;;4989069;28;20030;-78
2022/04/24 07:16:54;;;;;;;39.83;21.65;;;11.80;99.90;;;;;;4993101;28;20202;-78
2022/04/24 07:19:20;;;;;;;38.72;21.77;;;11.80;99.90;;;;;;4988202;28;20519;-79
2022/04/24 07:21:48;;;;;;;44.63;23.25;;;11.80;99.90;;;;;;4979946;28;20037;-78
2022/04/24 07:24:14;;;;;;;42.92;25.50;;;11.80;99.90;;;;;;4996589;28;20026;-78
2022/04/24 07:26:40;;;;;;;40.00;19.85;;;11.80;99.90;;;;;;4979912;28;20104;-79
2022/04/24 07:29:05;;;;;;;38.80;18.80;;;11.90;99.90;;;;;;4979694;28;20027;-78
2022/04/24 07:31:34;;;;;;;28.10;18.60;;;11.90;99.90;;;;;;4979655;28;20395;-82
2022/04/24 07:34:00;;;;;;;41.92;24.65;;;12.00;99.90;;;;;;4978129;28;20025;-81
2022/04/24 07:36:26;;;;;;;41.47;22.05;;;11.90;99.90;;;;;;4978020;28;20031;-79
2022/04/24 07:38:52;;;;;;;40.97;19.83;;;11.90;99.90;;;;;;4978077;28;20025;-78
2022/04/24 07:41:18;;;;;;;44.97;23.48;;;11.90;99.90;;;;;;4960665;28;20122;-78
2022/04/24 07:43:48;;;;;;;41.50;22.60;;;11.80;99.90;;;;;;4976812;28;20072;-78
2022/04/24 07:46:15;;;;;;;40.92;23.77;;;11.90;99.90;;;;;;4974622;28;20107;-80
2022/04/24 07:48:41;;;;;;;43.97;23.00;;;11.90;99.90;;;;;;4977969;28;20031;-79
2022/04/24 07:51:06;;;;;;;36.42;23.65;;;11.90;99.90;;;;;;4992954;28;20029;-80
2022/04/24 07:53:32;;;;;;;35.30;22.33;;;11.80;99.90;;;;;;4976941;28;20029;-81
2022/04/24 07:55:58;;;;;;;45.90;26.17;;;11.70;99.90;;;;;;4995697;28;20021;-81
2022/04/24 07:58:24;;;;;;;55.90;27.33;;;11.60;99.90;;;;;;4995763;28;20037;-80
2022/04/24 08:00:50;;;;;;;45.00;23.90;;;11.60;99.90;;;;;;4977924;28;20026;-81
2022/04/24 08:03:16;;;;;;;41.95;23.75;;;11.60;99.90;;;;;;4993856;28;20026;-80
2022/04/24 08:05:47;;;;;;;52.50;25.88;;;11.60;99.90;;;;;;4995832;28;20046;-80
2022/04/24 08:08:17;;;;;;;45.45;22.63;;;11.70;99.90;;;;;;4977760;28;20081;-80
2022/04/24 08:10:48;;;;;;;45.93;24.67;;;11.70;99.90;;;;;;4993457;28;20023;-81
2022/04/24 08:13:15;;;;;;;37.30;22.42;;;11.70;99.90;;;;;;4994339;28;20030;-80
2022/04/24 08:15:42;;;;;;;30.65;20.13;;;11.70;99.90;;;;;;4995085;28;20047;-80
2022/04/24 08:18:10;;;;;;;39.40;22.50;;;11.80;99.90;;;;;;4966609;28;20365;-80
2022/04/24 08:20:37;;;;;;;35.90;19.95;;;11.80;99.90;;;;;;4981560;28;20121;-78
2022/04/24 08:23:03;;;;;;;37.13;19.30;;;11.90;99.90;;;;;;4980959;28;20081;-80
2022/04/24 08:25:35;;;;;;;34.08;19.83;;;11.90;99.90;;;;;;4981473;28;20141;-80
2022/04/24 08:28:04;;;;;;;33.15;17.38;;;12.00;99.90;;;;;;4963857;28;20070;-80
2022/04/24 08:30:30;;;;;;;32.25;17.58;;;12.10;99.90;;;;;;4963720;28;20030;-78
2022/04/24 08:32:56;;;;;;;35.15;17.27;;;12.10;99.90;;;;;;4963661;28;20019;-80
2022/04/24 08:35:22;;;;;;;33.55;17.42;;;12.10;99.90;;;;;;4981135;28;20394;-79
2022/04/24 08:37:48;;;;;;;26.00;16.75;;;12.00;99.90;;;;;;4963348;28;20025;-80
2022/04/24 08:40:16;;;;;;;39.17;15.50;;;12.10;99.90;;;;;;4963631;28;20043;-83
2022/04/24 08:42:42;;;;;;;38.88;16.70;;;12.10;99.90;;;;;;4980952;28;20019;-80
2022/04/24 08:45:17;;;;;;;28.90;15.05;;;12.20;99.90;;;;;;4963477;28;20114;-81
2022/04/24 08:47:44;;;;;;;28.13;14.38;;;12.40;99.90;;;;;;4980113;28;20040;-79
2022/04/24 08:50:12;;;;;;;23.52;13.48;;;12.50;99.90;;;;;;4994778;28;20022;-79
2022/04/24 08:52:41;;;;;;;23.38;14.85;;;12.70;99.90;;;;;;4994938;28;20026;-81
2022/04/24 08:55:07;;;;;;;35.92;14.75;;;12.90;99.90;;;;;;4980264;28;20105;-83
2022/04/24 08:57:33;;;;;;;26.42;15.95;;;12.90;99.90;;;;;;4999996;28;20084;-81
2022/04/24 09:00:00;;;;;;;27.95;14.20;;;12.80;99.90;;;;;;4997772;28;20026;-79
2022/04/24 09:02:27;;;;;;;35.28;15.88;;;12.80;99.90;;;;;;4998583;28;20022;-81
2022/04/24 09:04:53;;;;;;;33.13;14.25;;;12.80;99.90;;;;;;4999814;28;20027;-81
2022/04/24 09:07:21;;;;;;;24.67;14.25;;;12.70;99.90;;;;;;4979014;28;20030;-79
2022/04/24 09:09:49;;;;;;;22.02;12.02;;;12.70;99.90;;;;;;4986014;28;20026;-82
2022/04/24 09:12:18;;;;;;;28.65;12.55;;;12.70;99.90;;;;;;4968820;28;20041;-81
2022/04/24 09:14:48;;;;;;;30.98;14.35;;;12.60;99.90;;;;;;4980783;28;20033;-81
2022/04/24 09:17:28;;;;;;;29.88;12.85;;;12.60;99.90;;;;;;4963079;28;20629;-82
2022/04/24 09:19:56;;;;;;;24.08;12.85;;;12.70;99.90;;;;;;4979065;28;20039;-84
2022/04/24 09:22:22;;;;;;;26.30;13.73;;;12.70;99.90;;;;;;4961897;28;20027;-82
2022/04/24 09:24:56;;;;;;;27.15;12.18;;;12.70;99.90;;;;;;4961478;28;20038;-83
2022/04/24 09:27:23;;;;;;;27.80;12.65;;;12.80;99.90;;;;;;4979557;28;20038;-80
2022/04/24 09:29:57;;;;;;;28.75;14.65;;;12.90;99.90;;;;;;4978301;28;20030;-80
2022/04/24 09:32:25;;;;;;;26.40;12.10;;;13.10;99.90;;;;;;4979879;28;20058;-79
2022/04/24 09:34:51;;;;;;;22.48;13.82;;;13.30;99.90;;;;;;4989011;28;20483;-79
2022/04/24 09:37:18;;;;;;;30.58;14.45;;;13.40;99.90;;;;;;4980094;28;20110;-78
2022/04/24 09:39:44;;;;;;;28.73;13.40;;;13.50;99.90;;;;;;4982366;28;20018;-79
2022/04/24 09:42:12;;;;;;;26.27;13.25;;;13.50;99.90;;;;;;4998425;28;20141;-79
2022/04/24 09:44:48;;;;;;;21.90;13.45;;;13.50;99.90;;;;;;4996244;28;20039;-78
2022/04/24 09:47:17;;;;;;;23.13;12.98;;;13.50;99.90;;;;;;4974899;28;20062;-81
2022/04/24 09:49:47;;;;;;;21.63;12.40;;;13.50;99.90;;;;;;4984307;28;20033;-79
2022/04/24 09:52:15;;;;;;;28.27;14.35;;;13.50;99.90;;;;;;4993035;28;20018;-79
2022/04/24 09:54:47;;;;;;;20.05;11.85;;;13.50;99.90;;;;;;4994063;28;20019;-78
2022/04/24 09:57:16;;;;;;;23.58;11.73;;;13.60;99.90;;;;;;4997197;28;20407;-80
2022/04/24 09:59:44;;;;;;;22.13;11.57;;;13.70;99.90;;;;;;4994854;28;20022;-79
2022/04/24 10:02:12;;;;;;;18.80;11.48;;;13.80;99.90;;;;;;4978946;28;20022;-78
2022/04/24 10:04:39;;;;;;;18.33;10.48;;;13.90;99.90;;;;;;4995073;28;20030;-79
2022/04/24 10:07:10;;;;;;;22.92;12.07;;;14.00;99.90;;;;;;4991523;28;20066;-78
2022/04/24 10:09:38;;;;;;;16.55;9.55;;;14.00;99.90;;;;;;4979181;28;20454;-81
2022/04/24 10:12:16;;;;;;;20.77;10.90;;;14.10;99.90;;;;;;4996075;28;20026;-76
2022/04/24 10:15:03;;;;;;;15.73;9.98;;;14.30;99.90;;;;;;4996155;28;20029;-79
2022/04/24 10:17:56;;;;;;;13.80;7.38;;;14.50;99.90;;;;;;4993806;28;20034;-78
2022/04/24 10:20:29;;;;;;;30.85;10.07;;;14.70;99.90;;;;;;4978653;28;20054;-76
2022/04/24 10:22:58;;;;;;;23.42;9.98;;;14.70;99.90;;;;;;4980098;28;20034;-76
2022/04/24 10:25:37;;;;;;;22.98;9.98;;;14.60;99.90;;;;;;4994620;28;20033;-78
2022/04/24 10:28:16;;;;;;;18.42;10.80;;;14.60;99.90;;;;;;4976757;28;20027;-76
2022/04/24 10:30:47;;;;;;;16.08;9.23;;;14.60;99.90;;;;;;4995675;28;20482;-76
2022/04/24 10:33:14;;;;;;;;;;;14.70;99.90;;;;;;4997875;28;20057;-80
2022/04/24 10:35:50;;;;;;;15.23;9.20;;;14.90;99.90;;;;;;4997350;28;19905;-78
2022/04/24 10:38:22;;;;;;;21.92;9.95;;;15.30;99.90;;;;;;4979279;28;20037;-78
2022/04/24 10:41:14;;;;;;;14.98;8.38;;;15.50;99.90;;;;;;4977572;28;20050;-79
2022/04/24 10:43:41;;;;;;;15.98;9.13;;;15.60;99.90;;;;;;4994889;28;20479;-78
2022/04/24 10:46:21;;;;;;;16.42;9.48;;;15.60;99.90;;;;;;4996805;28;20084;-82
2022/04/24 10:48:48;;;;;;;17.42;9.82;;;15.60;99.90;;;;;;4996734;28;20026;-78
2022/04/24 10:51:28;;;;;;;19.38;7.57;;;15.60;99.90;;;;;;4995017;28;20014;-80
2022/04/24 10:54:07;;;;;;;17.30;8.70;;;15.80;99.90;;;;;;4993760;28;20030;-78
2022/04/24 10:56:33;;;;;;;15.80;6.25;;;15.90;99.90;;;;;;4993829;28;20019;-82
2022/04/24 10:59:16;;;;;;;13.50;8.63;;;15.90;99.90;;;;;;4979469;28;20601;-79
2022/04/24 11:01:50;;;;;;;14.90;7.93;;;16.00;99.90;;;;;;4996476;28;20022;-79
2022/04/24 11:04:17;;;;;;;10.90;7.38;;;16.00;99.90;;;;;;4978573;28;20088;-78
2022/04/24 11:06:54;;;;;;;19.50;6.97;;;15.90;99.90;;;;;;4994984;28;20931;-80
2022/04/24 11:09:20;;;;;;;15.93;7.97;;;16.00;99.90;;;;;;4996882;28;20022;-78
2022/04/24 11:11:58;;;;;;;12.35;6.68;;;15.90;99.90;;;;;;4978502;28;20045;-79
2022/04/24 11:14:28;;;;;;;13.18;6.85;;;16.00;99.90;;;;;;4978309;28;20494;-78
2022/04/24 11:17:03;;;;;;;17.40;7.07;;;16.10;99.90;;;;;;4991351;28;20043;-78
2022/04/24 11:19:29;;;;;;;13.73;6.63;;;16.30;99.90;;;;;;4979548;28;20070;-80
2022/04/24 11:22:09;;;;;;;17.27;7.32;;;16.30;99.90;;;;;;4960859;28;20082;-81
2022/04/24 11:24:37;;;;;;;16.83;8.15;;;16.20;99.90;;;;;;4960643;28;20089;-77
2022/04/24 11:27:14;;;;;;;15.85;7.13;;;16.20;99.90;;;;;;4978108;28;20454;-78
2022/04/24 11:29:43;;;;;;;20.10;7.55;;;16.40;99.90;;;;;;4960793;28;20037;-79
2022/04/24 11:32:11;;;;;;;14.57;5.20;;;16.20;99.90;;;;;;4960769;28;20110;-79
2022/04/24 11:34:37;;;;;;;14.70;7.13;;;16.10;99.90;;;;;;4961006;28;20027;-78
2022/04/24 11:37:04;;;;;;;18.40;7.22;;;16.00;99.90;;;;;;4990049;28;20031;-77
2022/04/24 11:39:31;;;;;;;11.02;6.55;;;15.80;99.90;;;;;;4995776;28;20026;-80
2022/04/24 11:41:58;;;;;;;18.13;8.35;;;15.80;99.90;;;;;;4978624;28;20031;-80
2022/04/24 11:50:15;;;;;;;12.80;6.53;;;15.80;99.90;;;;;;4997124;28;20033;-79
2022/04/24 11:52:49;;;;;;;15.05;6.57;;;15.90;99.90;;;;;;4979078;28;20037;-79
2022/04/24 11:55:23;;;;;;;18.15;7.30;;;16.00;99.90;;;;;;4999027;28;20360;-78
2022/04/24 11:58:15;;;;;;;11.63;6.60;;;16.10;99.90;;;;;;4999064;28;20053;-80
2022/04/24 12:00:42;;;;;;;9.98;5.03;;;16.00;99.90;;;;;;4976088;28;20557;-79
2022/04/24 12:03:08;;;;;;;18.20;6.53;;;15.80;99.90;;;;;;4964498;28;20027;-78
2022/04/24 12:05:34;;;;;;;10.55;5.47;;;15.80;99.90;;;;;;4981697;28;20431;-79
2022/04/24 12:08:04;;;;;;;13.60;7.10;;;16.10;99.90;;;;;;4981855;28;20026;-77
2022/04/24 12:10:30;;;;;;;14.10;6.50;;;16.20;99.90;;;;;;4981724;28;20027;-79
2022/04/24 12:12:56;;;;;;;13.23;6.50;;;16.30;99.90;;;;;;4964196;28;20517;-80
2022/04/24 12:15:25;;;;;;;10.45;5.05;;;16.30;99.90;;;;;;4985960;28;20046;-78
2022/04/24 12:17:52;;;;;;;11.73;5.60;;;16.30;99.90;;;;;;4971529;28;20034;-79
2022/04/24 12:20:19;;;;;;;13.38;6.70;;;16.40;99.90;;;;;;4981274;28;20033;-78
2022/04/24 12:22:45;;;;;;;12.38;5.32;;;16.50;99.90;;;;;;4964026;28;20031;-82
2022/04/24 12:25:15;;;;;;;20.55;6.60;;;16.70;99.90;;;;;;4981663;28;20395;-79
2022/04/24 12:27:53;;;;;;;10.90;5.25;;;16.70;99.90;;;;;;4983247;28;20030;-79
2022/04/24 12:30:19;;;;;;;11.23;5.30;;;16.70;99.90;;;;;;5000739;28;20101;-81
2022/04/24 12:32:46;;;;;;;17.38;6.00;;;16.90;99.90;;;;;;4983063;28;20026;-78
2022/04/24 12:35:33;;;;;;;14.40;6.10;;;17.00;99.90;;;;;;4983223;28;20023;-79
2022/04/24 12:38:00;;;;;;;14.52;6.13;;;16.90;99.90;;;;;;5000158;28;20026;-79
2022/04/24 12:40:26;;;;;;;10.85;6.15;;;16.80;99.90;;;;;;5000524;28;20030;-80
2022/04/24 12:42:53;;;;;;;11.93;6.10;;;16.60;99.90;;;;;;4999499;28;20514;-80
2022/04/24 12:45:20;;;;;;;18.88;6.85;;;16.50;99.90;;;;;;4981942;28;20034;-78
2022/04/24 12:47:48;;;;;;;14.98;6.38;;;16.20;99.90;;;;;;4997081;28;20454;-79